sensor_id;sensor_type;location;lat;lon;timestamp;temperature;humidity
14182;DHT22;7171;50.936;6.764;2023-09-08T00:01:51;22.90;98.00
14182;DHT22;7171;50.936;6.764;2023-09-08T00:04:17;22.70;98.00
14182;DHT22;7171;50.936;6.764;2023-09-08T00:06:45;22.70;98.00
14182;DHT22;7171;50.936;6.764;2023-09-08T00:09:12;22.70;98.00
14182;DHT22;7171;50.936;6.764;2023-09-08T00:11:39;22.70;97.90
14182;DHT22;7171;50.936;6.764;2023-09-08T00:14:06;22.90;98.00
14182;DHT22;7171;50.936;6.764;2023-09-08T00:16:32;22.80;98.00
14182;DHT22;7171;50.936;6.764;2023-09-08T00:18:59;22.80;98.10
14182;DHT22;7171;50.936;6.764;2023-09-08T00:21:26;22.60;98.00
14182;DHT22;7171;50.936;6.764;2023-09-08T00:23:53;22.80;98.10
14182;DHT22;7171;50.936;6.764;2023-09-08T00:26:20;22.80;98.50
14182;DHT22;7171;50.936;6.764;2023-09-08T00:28:47;23.10;98.40
14182;DHT22;7171;50.936;6.764;2023-09-08T00:31:15;22.80;98.30
14182;DHT22;7171;50.936;6.764;2023-09-08T00:33:42;22.80;98.30
14182;DHT22;7171;50.936;6.764;2023-09-08T00:36:09;22.80;98.40
14182;DHT22;7171;50.936;6.764;2023-09-08T00:38:36;22.80;98.40
14182;DHT22;7171;50.936;6.764;2023-09-08T00:41:04;22.80;98.40
14182;DHT22;7171;50.936;6.764;2023-09-08T00:43:31;22.80;98.50
14182;DHT22;7171;50.936;6.764;2023-09-08T00:45:58;22.80;98.40
14182;DHT22;7171;50.936;6.764;2023-09-08T00:48:29;22.80;98.50
14182;DHT22;7171;50.936;6.764;2023-09-08T00:50:56;22.70;98.40
14182;DHT22;7171;50.936;6.764;2023-09-08T00:53:23;22.70;98.50
14182;DHT22;7171;50.936;6.764;2023-09-08T00:55:50;22.70;98.60
14182;DHT22;7171;50.936;6.764;2023-09-08T00:58:17;22.60;98.50
14182;DHT22;7171;50.936;6.764;2023-09-08T01:00:44;22.60;98.50
14182;DHT22;7171;50.936;6.764;2023-09-08T01:03:12;22.60;98.50
14182;DHT22;7171;50.936;6.764;2023-09-08T01:05:40;22.50;98.50
14182;DHT22;7171;50.936;6.764;2023-09-08T01:08:07;22.30;99.30
14182;DHT22;7171;50.936;6.764;2023-09-08T01:10:34;22.50;98.60
14182;DHT22;7171;50.936;6.764;2023-09-08T01:13:02;22.40;98.30
14182;DHT22;7171;50.936;6.764;2023-09-08T01:15:29;22.40;98.60
14182;DHT22;7171;50.936;6.764;2023-09-08T01:20:25;22.30;98.40
14182;DHT22;7171;50.936;6.764;2023-09-08T01:23:11;22.20;98.60
14182;DHT22;7171;50.936;6.764;2023-09-08T01:25:48;22.20;98.60
14182;DHT22;7171;50.936;6.764;2023-09-08T01:33:11;22.10;98.40
14182;DHT22;7171;50.936;6.764;2023-09-08T01:35:38;22.00;98.60
14182;DHT22;7171;50.936;6.764;2023-09-08T01:38:05;22.00;98.80
14182;DHT22;7171;50.936;6.764;2023-09-08T01:43:00;22.00;98.50
14182;DHT22;7171;50.936;6.764;2023-09-08T01:45:27;21.90;98.50
14182;DHT22;7171;50.936;6.764;2023-09-08T01:47:54;21.90;98.70
14182;DHT22;7171;50.936;6.764;2023-09-08T01:52:49;21.80;98.50
14182;DHT22;7171;50.936;6.764;2023-09-08T01:55:16;21.80;98.80
14182;DHT22;7171;50.936;6.764;2023-09-08T01:57:43;21.80;98.80
14182;DHT22;7171;50.936;6.764;2023-09-08T02:00:12;21.90;99.10
14182;DHT22;7171;50.936;6.764;2023-09-08T02:02:39;21.70;98.70
14182;DHT22;7171;50.936;6.764;2023-09-08T02:05:07;21.70;98.90
14182;DHT22;7171;50.936;6.764;2023-09-08T02:07:34;21.60;98.90
14182;DHT22;7171;50.936;6.764;2023-09-08T02:12:27;21.60;98.60
14182;DHT22;7171;50.936;6.764;2023-09-08T02:14:54;21.60;98.90
14182;DHT22;7171;50.936;6.764;2023-09-08T02:17:25;21.50;98.60
14182;DHT22;7171;50.936;6.764;2023-09-08T02:19:51;21.50;98.80
14182;DHT22;7171;50.936;6.764;2023-09-08T02:22:18;21.50;98.80
14182;DHT22;7171;50.936;6.764;2023-09-08T02:24:45;21.40;98.90
14182;DHT22;7171;50.936;6.764;2023-09-08T02:27:12;21.40;98.90
14182;DHT22;7171;50.936;6.764;2023-09-08T02:29:38;21.40;98.90
14182;DHT22;7171;50.936;6.764;2023-09-08T02:32:05;21.30;99.00
14182;DHT22;7171;50.936;6.764;2023-09-08T02:34:35;21.30;99.00
14182;DHT22;7171;50.936;6.764;2023-09-08T02:37:03;21.30;99.10
14182;DHT22;7171;50.936;6.764;2023-09-08T02:39:30;21.30;99.10
14182;DHT22;7171;50.936;6.764;2023-09-08T02:41:56;21.30;99.20
14182;DHT22;7171;50.936;6.764;2023-09-08T02:44:23;21.20;99.10
14182;DHT22;7171;50.936;6.764;2023-09-08T02:46:50;21.20;99.20
14182;DHT22;7171;50.936;6.764;2023-09-08T02:49:17;21.20;99.20
14182;DHT22;7171;50.936;6.764;2023-09-08T02:51:45;21.20;99.30
14182;DHT22;7171;50.936;6.764;2023-09-08T02:54:12;21.10;99.20
14182;DHT22;7171;50.936;6.764;2023-09-08T02:56:39;21.10;99.20
14182;DHT22;7171;50.936;6.764;2023-09-08T02:59:05;21.10;99.30
14182;DHT22;7171;50.936;6.764;2023-09-08T03:01:32;21.00;99.30
14182;DHT22;7171;50.936;6.764;2023-09-08T03:03:59;21.90;99.60
14182;DHT22;7171;50.936;6.764;2023-09-08T03:06:26;22.00;99.70
14182;DHT22;7171;50.936;6.764;2023-09-08T03:08:54;21.50;99.60
14182;DHT22;7171;50.936;6.764;2023-09-08T03:11:20;20.90;99.40
14182;DHT22;7171;50.936;6.764;2023-09-08T03:13:47;20.90;99.50
14182;DHT22;7171;50.936;6.764;2023-09-08T03:16:14;20.90;99.50
14182;DHT22;7171;50.936;6.764;2023-09-08T03:18:41;20.90;99.30
14182;DHT22;7171;50.936;6.764;2023-09-08T03:21:08;23.20;99.90
14182;DHT22;7171;50.936;6.764;2023-09-08T03:23:38;20.20;99.90
14182;DHT22;7171;50.936;6.764;2023-09-08T03:26:06;22.30;99.90
14182;DHT22;7171;50.936;6.764;2023-09-08T03:28:34;21.00;99.90
14182;DHT22;7171;50.936;6.764;2023-09-08T03:31:01;20.70;99.50
14182;DHT22;7171;50.936;6.764;2023-09-08T03:33:28;20.80;99.80
14182;DHT22;7171;50.936;6.764;2023-09-08T03:35:55;20.30;99.90
14182;DHT22;7171;50.936;6.764;2023-09-08T03:38:22;20.70;99.90
14182;DHT22;7171;50.936;6.764;2023-09-08T03:43:18;20.90;99.90
14182;DHT22;7171;50.936;6.764;2023-09-08T03:45:45;20.60;99.90
14182;DHT22;7171;50.936;6.764;2023-09-08T03:53:12;20.70;99.90
14182;DHT22;7171;50.936;6.764;2023-09-08T03:55:39;21.20;99.90
14182;DHT22;7171;50.936;6.764;2023-09-08T04:00:34;20.60;99.90
14182;DHT22;7171;50.936;6.764;2023-09-08T04:03:01;20.60;99.90
14182;DHT22;7171;50.936;6.764;2023-09-08T04:05:28;20.60;99.90
14182;DHT22;7171;50.936;6.764;2023-09-08T04:07:54;20.50;99.90
14182;DHT22;7171;50.936;6.764;2023-09-08T04:10:21;20.50;99.90
14182;DHT22;7171;50.936;6.764;2023-09-08T04:12:48;20.50;99.90
14182;DHT22;7171;50.936;6.764;2023-09-08T04:15:14;20.50;99.90
14182;DHT22;7171;50.936;6.764;2023-09-08T04:17:42;20.50;99.90
14182;DHT22;7171;50.936;6.764;2023-09-08T04:20:10;20.50;99.90
14182;DHT22;7171;50.936;6.764;2023-09-08T04:22:39;20.50;99.90
14182;DHT22;7171;50.936;6.764;2023-09-08T04:25:06;20.50;99.90
14182;DHT22;7171;50.936;6.764;2023-09-08T04:27:33;20.50;99.90
14182;DHT22;7171;50.936;6.764;2023-09-08T04:30:02;20.50;99.90
14182;DHT22;7171;50.936;6.764;2023-09-08T04:32:29;20.50;99.90
14182;DHT22;7171;50.936;6.764;2023-09-08T04:34:57;20.50;99.90
14182;DHT22;7171;50.936;6.764;2023-09-08T04:37:23;20.10;99.90
14182;DHT22;7171;50.936;6.764;2023-09-08T04:39:50;20.50;99.90
14182;DHT22;7171;50.936;6.764;2023-09-08T04:42:17;20.50;99.90
14182;DHT22;7171;50.936;6.764;2023-09-08T04:44:43;20.40;99.90
14182;DHT22;7171;50.936;6.764;2023-09-08T04:47:10;20.40;99.90
14182;DHT22;7171;50.936;6.764;2023-09-08T04:49:37;20.30;99.90
14182;DHT22;7171;50.936;6.764;2023-09-08T04:52:05;20.30;99.90
14182;DHT22;7171;50.936;6.764;2023-09-08T04:54:32;21.70;99.90
14182;DHT22;7171;50.936;6.764;2023-09-08T04:56:59;19.80;99.90
14182;DHT22;7171;50.936;6.764;2023-09-08T04:59:26;20.20;99.90
14182;DHT22;7171;50.936;6.764;2023-09-08T05:04:19;20.20;99.90
14182;DHT22;7171;50.936;6.764;2023-09-08T05:06:46;19.70;99.90
14182;DHT22;7171;50.936;6.764;2023-09-08T05:09:14;20.10;99.90
14182;DHT22;7171;50.936;6.764;2023-09-08T05:11:41;19.70;99.90
14182;DHT22;7171;50.936;6.764;2023-09-08T05:14:08;19.70;99.90
14182;DHT22;7171;50.936;6.764;2023-09-08T05:16:34;19.50;99.90
14182;DHT22;7171;50.936;6.764;2023-09-08T05:19:10;19.80;99.90
14182;DHT22;7171;50.936;6.764;2023-09-08T05:21:37;19.60;99.90
14182;DHT22;7171;50.936;6.764;2023-09-08T05:24:04;19.50;99.90
14182;DHT22;7171;50.936;6.764;2023-09-08T05:26:35;20.10;99.90
14182;DHT22;7171;50.936;6.764;2023-09-08T05:29:02;19.70;99.90
14182;DHT22;7171;50.936;6.764;2023-09-08T05:31:29;19.80;99.90
14182;DHT22;7171;50.936;6.764;2023-09-08T05:33:56;19.90;99.90
14182;DHT22;7171;50.936;6.764;2023-09-08T05:36:22;20.00;99.90
14182;DHT22;7171;50.936;6.764;2023-09-08T05:38:49;19.60;99.90
14182;DHT22;7171;50.936;6.764;2023-09-08T05:41:16;19.90;99.90
14182;DHT22;7171;50.936;6.764;2023-09-08T05:43:44;19.90;99.90
14182;DHT22;7171;50.936;6.764;2023-09-08T05:46:11;19.30;99.90
14182;DHT22;7171;50.936;6.764;2023-09-08T05:48:38;19.90;99.90
14182;DHT22;7171;50.936;6.764;2023-09-08T05:51:05;19.70;99.90
14182;DHT22;7171;50.936;6.764;2023-09-08T05:53:32;20.10;99.90
14182;DHT22;7171;50.936;6.764;2023-09-08T05:56:01;19.80;99.90
14182;DHT22;7171;50.936;6.764;2023-09-08T05:58:27;20.90;99.90
14182;DHT22;7171;50.936;6.764;2023-09-08T06:00:56;19.80;99.90
14182;DHT22;7171;50.936;6.764;2023-09-08T06:03:23;19.90;99.90
14182;DHT22;7171;50.936;6.764;2023-09-08T06:05:49;20.00;99.90
14182;DHT22;7171;50.936;6.764;2023-09-08T06:08:16;19.80;99.90
14182;DHT22;7171;50.936;6.764;2023-09-08T06:10:43;21.10;99.90
14182;DHT22;7171;50.936;6.764;2023-09-08T06:13:09;20.00;99.90
14182;DHT22;7171;50.936;6.764;2023-09-08T06:15:36;20.20;99.90
14182;DHT22;7171;50.936;6.764;2023-09-08T06:18:05;20.90;99.90
14182;DHT22;7171;50.936;6.764;2023-09-08T06:20:31;20.80;99.90
14182;DHT22;7171;50.936;6.764;2023-09-08T06:22:58;20.90;99.90
14182;DHT22;7171;50.936;6.764;2023-09-08T06:25:26;20.40;99.90
14182;DHT22;7171;50.936;6.764;2023-09-08T06:27:53;20.40;99.90
14182;DHT22;7171;50.936;6.764;2023-09-08T06:30:20;20.40;99.90
14182;DHT22;7171;50.936;6.764;2023-09-08T06:32:47;20.40;99.90
14182;DHT22;7171;50.936;6.764;2023-09-08T06:35:15;20.20;99.90
14182;DHT22;7171;50.936;6.764;2023-09-08T06:37:42;20.50;99.90
14182;DHT22;7171;50.936;6.764;2023-09-08T06:40:09;20.50;99.90
14182;DHT22;7171;50.936;6.764;2023-09-08T06:42:35;20.60;99.90
14182;DHT22;7171;50.936;6.764;2023-09-08T06:45:02;20.60;99.90
14182;DHT22;7171;50.936;6.764;2023-09-08T06:47:29;20.60;99.90
14182;DHT22;7171;50.936;6.764;2023-09-08T06:49:56;20.70;99.90
14182;DHT22;7171;50.936;6.764;2023-09-08T06:52:24;20.70;99.90
14182;DHT22;7171;50.936;6.764;2023-09-08T06:54:50;20.60;99.90
14182;DHT22;7171;50.936;6.764;2023-09-08T06:57:18;20.80;99.90
14182;DHT22;7171;50.936;6.764;2023-09-08T06:59:46;20.60;99.90
14182;DHT22;7171;50.936;6.764;2023-09-08T07:02:13;20.70;99.90
14182;DHT22;7171;50.936;6.764;2023-09-08T07:04:39;20.80;99.90
14182;DHT22;7171;50.936;6.764;2023-09-08T07:07:06;20.90;99.90
14182;DHT22;7171;50.936;6.764;2023-09-08T07:09:34;21.00;99.90
14182;DHT22;7171;50.936;6.764;2023-09-08T07:12:02;21.00;99.90
14182;DHT22;7171;50.936;6.764;2023-09-08T07:14:29;21.00;99.90
14182;DHT22;7171;50.936;6.764;2023-09-08T07:16:56;21.10;99.90
14182;DHT22;7171;50.936;6.764;2023-09-08T07:19:23;20.90;99.90
14182;DHT22;7171;50.936;6.764;2023-09-08T07:21:49;21.10;99.90
14182;DHT22;7171;50.936;6.764;2023-09-08T07:24:16;21.10;99.90
14182;DHT22;7171;50.936;6.764;2023-09-08T07:26:44;21.10;99.90
14182;DHT22;7171;50.936;6.764;2023-09-08T07:29:11;21.10;99.90
14182;DHT22;7171;50.936;6.764;2023-09-08T07:31:39;21.30;99.90
14182;DHT22;7171;50.936;6.764;2023-09-08T07:34:06;21.20;99.90
14182;DHT22;7171;50.936;6.764;2023-09-08T07:41:27;22.70;99.90
14182;DHT22;7171;50.936;6.764;2023-09-08T07:43:55;21.50;99.90
14182;DHT22;7171;50.936;6.764;2023-09-08T07:46:21;21.20;99.90
14182;DHT22;7171;50.936;6.764;2023-09-08T07:48:48;21.50;99.90
14182;DHT22;7171;50.936;6.764;2023-09-08T07:51:15;21.60;99.90
14182;DHT22;7171;50.936;6.764;2023-09-08T07:53:41;21.80;99.90
14182;DHT22;7171;50.936;6.764;2023-09-08T07:56:08;21.80;99.90
14182;DHT22;7171;50.936;6.764;2023-09-08T07:58:36;21.90;99.90
14182;DHT22;7171;50.936;6.764;2023-09-08T08:01:04;21.80;99.90
14182;DHT22;7171;50.936;6.764;2023-09-08T08:03:31;21.90;99.90
14182;DHT22;7171;50.936;6.764;2023-09-08T08:06:00;22.10;99.90
14182;DHT22;7171;50.936;6.764;2023-09-08T08:13:21;22.30;99.90
14182;DHT22;7171;50.936;6.764;2023-09-08T08:15:49;22.20;99.90
14182;DHT22;7171;50.936;6.764;2023-09-08T08:18:17;22.50;99.90
14182;DHT22;7171;50.936;6.764;2023-09-08T08:20:44;22.60;99.90
14182;DHT22;7171;50.936;6.764;2023-09-08T08:23:11;22.80;99.90
14182;DHT22;7171;50.936;6.764;2023-09-08T08:25:37;23.00;99.90
14182;DHT22;7171;50.936;6.764;2023-09-08T08:28:04;22.90;99.90
14182;DHT22;7171;50.936;6.764;2023-09-08T08:30:31;23.10;99.90
14182;DHT22;7171;50.936;6.764;2023-09-08T08:32:58;23.20;99.90
14182;DHT22;7171;50.936;6.764;2023-09-08T08:35:27;23.40;99.90
14182;DHT22;7171;50.936;6.764;2023-09-08T08:37:53;23.50;99.90
14182;DHT22;7171;50.936;6.764;2023-09-08T08:40:20;23.50;99.90
14182;DHT22;7171;50.936;6.764;2023-09-08T08:42:54;23.60;99.90
14182;DHT22;7171;50.936;6.764;2023-09-08T08:45:23;23.70;99.90
14182;DHT22;7171;50.936;6.764;2023-09-08T08:47:50;23.90;99.90
14182;DHT22;7171;50.936;6.764;2023-09-08T08:50:18;23.90;99.90
14182;DHT22;7171;50.936;6.764;2023-09-08T08:52:46;24.00;99.90
14182;DHT22;7171;50.936;6.764;2023-09-08T08:55:13;24.10;99.90
14182;DHT22;7171;50.936;6.764;2023-09-08T08:57:41;24.20;99.90
14182;DHT22;7171;50.936;6.764;2023-09-08T09:00:09;24.20;99.90
14182;DHT22;7171;50.936;6.764;2023-09-08T09:02:40;24.30;99.90
14182;DHT22;7171;50.936;6.764;2023-09-08T09:07:34;24.50;99.90
14182;DHT22;7171;50.936;6.764;2023-09-08T09:10:04;24.60;99.90
14182;DHT22;7171;50.936;6.764;2023-09-08T09:12:32;24.70;99.90
14182;DHT22;7171;50.936;6.764;2023-09-08T09:14:59;24.80;99.90
14182;DHT22;7171;50.936;6.764;2023-09-08T09:17:26;24.80;99.90
14182;DHT22;7171;50.936;6.764;2023-09-08T09:20:12;24.90;99.90
14182;DHT22;7171;50.936;6.764;2023-09-08T09:22:39;25.00;99.90
14182;DHT22;7171;50.936;6.764;2023-09-08T09:25:08;25.10;99.90
14182;DHT22;7171;50.936;6.764;2023-09-08T09:27:35;25.20;99.90
14182;DHT22;7171;50.936;6.764;2023-09-08T09:30:07;25.20;99.90
14182;DHT22;7171;50.936;6.764;2023-09-08T09:35:01;25.60;99.90
14182;DHT22;7171;50.936;6.764;2023-09-08T09:37:30;25.70;99.90
14182;DHT22;7171;50.936;6.764;2023-09-08T09:39:56;25.80;99.90
14182;DHT22;7171;50.936;6.764;2023-09-08T09:42:24;25.90;99.90
14182;DHT22;7171;50.936;6.764;2023-09-08T09:44:54;26.00;99.90
14182;DHT22;7171;50.936;6.764;2023-09-08T09:49:49;26.10;99.90
14182;DHT22;7171;50.936;6.764;2023-09-08T09:52:21;26.20;99.90
14182;DHT22;7171;50.936;6.764;2023-09-08T09:54:48;26.30;99.90
14182;DHT22;7171;50.936;6.764;2023-09-08T09:57:20;26.30;99.90
14182;DHT22;7171;50.936;6.764;2023-09-08T09:59:48;26.40;99.90
14182;DHT22;7171;50.936;6.764;2023-09-08T10:02:17;26.60;99.90
14182;DHT22;7171;50.936;6.764;2023-09-08T10:04:47;26.60;99.90
14182;DHT22;7171;50.936;6.764;2023-09-08T10:07:14;26.70;99.90
14182;DHT22;7171;50.936;6.764;2023-09-08T10:09:42;26.80;99.90
14182;DHT22;7171;50.936;6.764;2023-09-08T10:12:09;26.90;99.90
14182;DHT22;7171;50.936;6.764;2023-09-08T10:14:41;27.00;99.90
14182;DHT22;7171;50.936;6.764;2023-09-08T10:17:14;27.10;99.90
14182;DHT22;7171;50.936;6.764;2023-09-08T10:19:44;27.20;99.90
14182;DHT22;7171;50.936;6.764;2023-09-08T10:22:19;27.20;99.90
14182;DHT22;7171;50.936;6.764;2023-09-08T10:24:46;27.30;99.90
14182;DHT22;7171;50.936;6.764;2023-09-08T10:27:15;27.40;99.90
14182;DHT22;7171;50.936;6.764;2023-09-08T10:29:45;27.50;99.90
14182;DHT22;7171;50.936;6.764;2023-09-08T10:32:14;27.60;99.90
14182;DHT22;7171;50.936;6.764;2023-09-08T10:34:41;27.60;99.90
14182;DHT22;7171;50.936;6.764;2023-09-08T10:37:19;27.70;99.90
14182;DHT22;7171;50.936;6.764;2023-09-08T10:39:46;27.70;99.90
14182;DHT22;7171;50.936;6.764;2023-09-08T10:42:25;27.80;99.90
14182;DHT22;7171;50.936;6.764;2023-09-08T10:45:01;27.90;99.90
14182;DHT22;7171;50.936;6.764;2023-09-08T10:47:33;28.00;99.90
14182;DHT22;7171;50.936;6.764;2023-09-08T10:50:06;28.10;99.90
14182;DHT22;7171;50.936;6.764;2023-09-08T10:52:35;28.20;99.90
14182;DHT22;7171;50.936;6.764;2023-09-08T10:55:01;28.30;99.90
14182;DHT22;7171;50.936;6.764;2023-09-08T10:57:33;28.40;99.90
14182;DHT22;7171;50.936;6.764;2023-09-08T11:00:02;28.50;99.90
14182;DHT22;7171;50.936;6.764;2023-09-08T11:02:36;28.60;99.90
14182;DHT22;7171;50.936;6.764;2023-09-08T11:05:06;29.00;99.90
14182;DHT22;7171;50.936;6.764;2023-09-08T11:07:35;28.70;99.90
14182;DHT22;7171;50.936;6.764;2023-09-08T11:12:30;28.90;99.90
14182;DHT22;7171;50.936;6.764;2023-09-08T11:14:57;29.00;99.90
14182;DHT22;7171;50.936;6.764;2023-09-08T11:17:26;29.10;99.90
14182;DHT22;7171;50.936;6.764;2023-09-08T11:19:55;29.10;99.90
14182;DHT22;7171;50.936;6.764;2023-09-08T11:22:23;29.30;99.90
14182;DHT22;7171;50.936;6.764;2023-09-08T11:24:51;29.50;99.90
14182;DHT22;7171;50.936;6.764;2023-09-08T11:27:18;29.50;99.90
14182;DHT22;7171;50.936;6.764;2023-09-08T11:29:45;29.50;99.90
14182;DHT22;7171;50.936;6.764;2023-09-08T11:32:12;29.60;99.90
14182;DHT22;7171;50.936;6.764;2023-09-08T11:34:39;29.60;99.90
14182;DHT22;7171;50.936;6.764;2023-09-08T11:37:09;29.60;99.90
14182;DHT22;7171;50.936;6.764;2023-09-08T11:39:39;29.70;99.90
14182;DHT22;7171;50.936;6.764;2023-09-08T11:42:06;29.70;99.90
14182;DHT22;7171;50.936;6.764;2023-09-08T11:44:34;29.80;99.90
14182;DHT22;7171;50.936;6.764;2023-09-08T11:47:01;29.90;99.90
14182;DHT22;7171;50.936;6.764;2023-09-08T11:49:34;30.00;99.90
14182;DHT22;7171;50.936;6.764;2023-09-08T11:52:01;30.40;99.90
14182;DHT22;7171;50.936;6.764;2023-09-08T11:54:29;30.10;99.90
14182;DHT22;7171;50.936;6.764;2023-09-08T11:56:58;30.10;99.80
14182;DHT22;7171;50.936;6.764;2023-09-08T11:59:26;30.20;99.70
14182;DHT22;7171;50.936;6.764;2023-09-08T12:01:53;30.20;99.60
14182;DHT22;7171;50.936;6.764;2023-09-08T12:04:20;30.20;99.70
14182;DHT22;7171;50.936;6.764;2023-09-08T12:06:47;30.30;99.70
14182;DHT22;7171;50.936;6.764;2023-09-08T12:09:14;30.30;99.70
14182;DHT22;7171;50.936;6.764;2023-09-08T12:11:43;30.40;99.60
14182;DHT22;7171;50.936;6.764;2023-09-08T12:14:11;30.40;99.40
14182;DHT22;7171;50.936;6.764;2023-09-08T12:16:38;30.30;99.20
14182;DHT22;7171;50.936;6.764;2023-09-08T12:19:05;30.60;99.10
14182;DHT22;7171;50.936;6.764;2023-09-08T12:21:34;30.40;99.20
14182;DHT22;7171;50.936;6.764;2023-09-08T12:24:01;30.50;99.10
14182;DHT22;7171;50.936;6.764;2023-09-08T12:26:28;30.60;99.00
14182;DHT22;7171;50.936;6.764;2023-09-08T12:28:56;30.40;99.00
14182;DHT22;7171;50.936;6.764;2023-09-08T12:31:23;30.50;98.90
14182;DHT22;7171;50.936;6.764;2023-09-08T12:33:50;30.50;98.80
14182;DHT22;7171;50.936;6.764;2023-09-08T12:36:19;30.40;98.60
14182;DHT22;7171;50.936;6.764;2023-09-08T12:38:50;30.40;98.60
14182;DHT22;7171;50.936;6.764;2023-09-08T12:41:17;30.30;98.60
14182;DHT22;7171;50.936;6.764;2023-09-08T12:43:44;30.60;98.80
14182;DHT22;7171;50.936;6.764;2023-09-08T12:46:12;30.30;98.60
14182;DHT22;7171;50.936;6.764;2023-09-08T12:48:39;30.30;98.70
14182;DHT22;7171;50.936;6.764;2023-09-08T12:51:06;30.30;98.20
14182;DHT22;7171;50.936;6.764;2023-09-08T12:53:33;30.20;98.10
14182;DHT22;7171;50.936;6.764;2023-09-08T12:56:01;30.30;98.20
14182;DHT22;7171;50.936;6.764;2023-09-08T12:58:28;30.20;98.00
14182;DHT22;7171;50.936;6.764;2023-09-08T13:00:55;30.30;98.00
14182;DHT22;7171;50.936;6.764;2023-09-08T13:03:23;30.30;98.10
14182;DHT22;7171;50.936;6.764;2023-09-08T13:05:50;30.30;97.90
14182;DHT22;7171;50.936;6.764;2023-09-08T13:08:17;30.40;97.90
14182;DHT22;7171;50.936;6.764;2023-09-08T13:10:43;30.40;98.00
14182;DHT22;7171;50.936;6.764;2023-09-08T13:13:10;30.50;98.10
14182;DHT22;7171;50.936;6.764;2023-09-08T13:15:37;30.50;98.30
14182;DHT22;7171;50.936;6.764;2023-09-08T13:18:04;30.40;98.50
14182;DHT22;7171;50.936;6.764;2023-09-08T13:20:32;30.50;98.20
14182;DHT22;7171;50.936;6.764;2023-09-08T13:22:58;30.50;98.10
14182;DHT22;7171;50.936;6.764;2023-09-08T13:25:25;30.50;98.00
14182;DHT22;7171;50.936;6.764;2023-09-08T13:27:52;30.60;97.90
14182;DHT22;7171;50.936;6.764;2023-09-08T13:30:19;30.60;97.90
14182;DHT22;7171;50.936;6.764;2023-09-08T13:32:47;30.60;97.90
14182;DHT22;7171;50.936;6.764;2023-09-08T13:35:14;30.70;97.90
14182;DHT22;7171;50.936;6.764;2023-09-08T13:37:42;30.70;97.90
14182;DHT22;7171;50.936;6.764;2023-09-08T13:40:09;30.70;97.70
14182;DHT22;7171;50.936;6.764;2023-09-08T13:42:36;30.80;97.60
14182;DHT22;7171;50.936;6.764;2023-09-08T13:45:03;30.90;97.80
14182;DHT22;7171;50.936;6.764;2023-09-08T13:47:30;31.00;97.90
14182;DHT22;7171;50.936;6.764;2023-09-08T13:49:57;31.00;97.30
14182;DHT22;7171;50.936;6.764;2023-09-08T13:52:23;31.10;97.30
14182;DHT22;7171;50.936;6.764;2023-09-08T13:54:51;31.10;96.90
14182;DHT22;7171;50.936;6.764;2023-09-08T13:57:18;31.10;97.00
14182;DHT22;7171;50.936;6.764;2023-09-08T13:59:46;31.10;97.00
14182;DHT22;7171;50.936;6.764;2023-09-08T14:02:13;31.10;96.90
14182;DHT22;7171;50.936;6.764;2023-09-08T14:04:39;31.10;96.80
14182;DHT22;7171;50.936;6.764;2023-09-08T14:07:07;31.00;96.90
14182;DHT22;7171;50.936;6.764;2023-09-08T14:09:34;31.10;97.00
14182;DHT22;7171;50.936;6.764;2023-09-08T14:12:03;31.10;96.80
14182;DHT22;7171;50.936;6.764;2023-09-08T14:14:30;31.10;96.80
14182;DHT22;7171;50.936;6.764;2023-09-08T14:16:56;31.10;96.60
14182;DHT22;7171;50.936;6.764;2023-09-08T14:19:23;31.10;96.40
14182;DHT22;7171;50.936;6.764;2023-09-08T14:21:50;31.10;96.40
14182;DHT22;7171;50.936;6.764;2023-09-08T14:24:16;31.20;96.60
14182;DHT22;7171;50.936;6.764;2023-09-08T14:26:43;31.20;96.60
14182;DHT22;7171;50.936;6.764;2023-09-08T14:29:11;31.20;96.60
14182;DHT22;7171;50.936;6.764;2023-09-08T14:31:38;31.20;96.50
14182;DHT22;7171;50.936;6.764;2023-09-08T14:34:05;31.20;96.60
14182;DHT22;7171;50.936;6.764;2023-09-08T14:36:31;31.30;96.60
14182;DHT22;7171;50.936;6.764;2023-09-08T14:38:58;31.40;96.70
14182;DHT22;7171;50.936;6.764;2023-09-08T14:41:25;31.40;96.90
14182;DHT22;7171;50.936;6.764;2023-09-08T14:43:52;31.50;96.90
14182;DHT22;7171;50.936;6.764;2023-09-08T14:46:20;31.60;96.80
14182;DHT22;7171;50.936;6.764;2023-09-08T14:48:46;31.70;96.70
14182;DHT22;7171;50.936;6.764;2023-09-08T14:51:13;31.80;96.60
14182;DHT22;7171;50.936;6.764;2023-09-08T14:53:40;31.80;96.40
14182;DHT22;7171;50.936;6.764;2023-09-08T14:56:06;31.90;96.10
14182;DHT22;7171;50.936;6.764;2023-09-08T14:58:33;31.90;96.00
14182;DHT22;7171;50.936;6.764;2023-09-08T15:01:01;32.00;96.10
14182;DHT22;7171;50.936;6.764;2023-09-08T15:03:31;32.00;96.00
14182;DHT22;7171;50.936;6.764;2023-09-08T15:05:58;32.00;95.90
14182;DHT22;7171;50.936;6.764;2023-09-08T15:08:25;32.00;95.90
14182;DHT22;7171;50.936;6.764;2023-09-08T15:10:52;32.10;95.70
14182;DHT22;7171;50.936;6.764;2023-09-08T15:13:18;32.10;95.80
14182;DHT22;7171;50.936;6.764;2023-09-08T15:15:45;32.20;95.80
14182;DHT22;7171;50.936;6.764;2023-09-08T15:18:13;32.30;95.80
14182;DHT22;7171;50.936;6.764;2023-09-08T15:20:49;32.50;95.80
14182;DHT22;7171;50.936;6.764;2023-09-08T15:23:16;32.60;95.80
14182;DHT22;7171;50.936;6.764;2023-09-08T15:25:50;32.60;95.40
14182;DHT22;7171;50.936;6.764;2023-09-08T15:28:17;32.80;95.50
14182;DHT22;7171;50.936;6.764;2023-09-08T15:30:47;32.90;95.20
14182;DHT22;7171;50.936;6.764;2023-09-08T15:33:13;33.10;95.50
14182;DHT22;7171;50.936;6.764;2023-09-08T15:35:42;33.10;95.30
14182;DHT22;7171;50.936;6.764;2023-09-08T15:38:09;33.10;95.30
14182;DHT22;7171;50.936;6.764;2023-09-08T15:40:37;33.00;95.00
14182;DHT22;7171;50.936;6.764;2023-09-08T15:43:04;33.00;95.00
14182;DHT22;7171;50.936;6.764;2023-09-08T15:45:31;33.10;95.00
14182;DHT22;7171;50.936;6.764;2023-09-08T15:47:58;33.10;95.20
14182;DHT22;7171;50.936;6.764;2023-09-08T15:50:24;33.10;95.00
14182;DHT22;7171;50.936;6.764;2023-09-08T15:52:53;33.00;94.90
14182;DHT22;7171;50.936;6.764;2023-09-08T15:55:20;33.00;94.80
14182;DHT22;7171;50.936;6.764;2023-09-08T15:57:47;33.00;94.70
14182;DHT22;7171;50.936;6.764;2023-09-08T16:00:14;32.90;94.50
14182;DHT22;7171;50.936;6.764;2023-09-08T16:02:41;32.90;94.30
14182;DHT22;7171;50.936;6.764;2023-09-08T16:05:08;32.80;94.40
14182;DHT22;7171;50.936;6.764;2023-09-08T16:07:35;32.80;94.30
14182;DHT22;7171;50.936;6.764;2023-09-08T16:10:04;33.00;94.30
14182;DHT22;7171;50.936;6.764;2023-09-08T16:12:30;32.70;94.10
14182;DHT22;7171;50.936;6.764;2023-09-08T16:14:57;32.60;94.00
14182;DHT22;7171;50.936;6.764;2023-09-08T16:17:24;32.60;94.00
14182;DHT22;7171;50.936;6.764;2023-09-08T16:19:51;32.40;93.90
14182;DHT22;7171;50.936;6.764;2023-09-08T16:22:18;32.40;93.80
14182;DHT22;7171;50.936;6.764;2023-09-08T16:24:44;32.20;93.70
14182;DHT22;7171;50.936;6.764;2023-09-08T16:27:12;32.00;93.80
14182;DHT22;7171;50.936;6.764;2023-09-08T16:29:39;31.90;93.70
14182;DHT22;7171;50.936;6.764;2023-09-08T16:32:08;31.70;93.70
14182;DHT22;7171;50.936;6.764;2023-09-08T16:34:34;31.80;94.00